createdAt,value
2023-05-21T00:01:39.700Z,14.10
2023-05-21T00:04:08.063Z,14.00
2023-05-21T00:06:38.781Z,14.00
2023-05-21T00:09:06.959Z,14.00
2023-05-21T00:11:34.342Z,14.00
2023-05-21T00:14:01.692Z,14.00
2023-05-21T00:16:29.087Z,13.90
2023-05-21T00:18:58.883Z,13.80
2023-05-21T00:21:26.639Z,13.70
2023-05-21T00:23:56.599Z,13.70
2023-05-21T00:26:27.117Z,13.60
2023-05-21T00:28:54.567Z,13.50
2023-05-21T00:31:22.388Z,13.50
2023-05-21T00:33:49.930Z,13.50
2023-05-21T00:36:17.410Z,13.60
2023-05-21T00:38:46.069Z,13.60
2023-05-21T00:41:13.755Z,13.40
2023-05-21T00:43:41.573Z,13.50
2023-05-21T00:46:12.509Z,13.40
2023-05-21T00:48:40.583Z,13.40
2023-05-21T00:51:08.038Z,13.50
2023-05-21T00:53:36.912Z,13.50
2023-05-21T00:56:05.219Z,13.50
2023-05-21T00:58:35.851Z,13.60
2023-05-21T01:01:03.761Z,13.60
2023-05-21T01:03:31.164Z,13.60
2023-05-21T01:06:00.435Z,13.70
2023-05-21T01:08:28.899Z,13.60
2023-05-21T01:10:57.802Z,13.70
2023-05-21T01:13:26.445Z,13.70
2023-05-21T01:15:54.369Z,13.70
2023-05-21T01:18:22.323Z,13.70
2023-05-21T01:20:51.019Z,13.80
2023-05-21T01:23:18.521Z,13.70
2023-05-21T01:25:46.757Z,13.70
2023-05-21T01:28:15.077Z,13.70
2023-05-21T01:30:44.068Z,13.70
2023-05-21T01:33:18.749Z,13.70
2023-05-21T01:36:05.069Z,13.70
2023-05-21T01:38:44.028Z,13.70
2023-05-21T01:41:12.820Z,13.70
2023-05-21T01:43:44.286Z,13.70
2023-05-21T01:46:17.507Z,13.60
2023-05-21T01:48:45.006Z,13.50
2023-05-21T01:51:13.126Z,13.40
2023-05-21T01:53:41.997Z,13.50
2023-05-21T01:56:09.273Z,13.30
2023-05-21T01:58:36.627Z,13.30
2023-05-21T02:01:05.324Z,13.30
2023-05-21T02:03:33.208Z,13.20
2023-05-21T02:06:00.936Z,13.10
2023-05-21T02:08:28.186Z,13.00
2023-05-21T02:10:55.748Z,13.00
2023-05-21T02:13:25.950Z,12.90
2023-05-21T02:15:55.259Z,12.90
2023-05-21T02:18:22.844Z,12.80
2023-05-21T02:20:50.203Z,12.80
2023-05-21T02:23:17.554Z,12.80
2023-05-21T02:25:45.323Z,12.80
2023-05-21T02:28:13.233Z,12.90
2023-05-21T02:30:40.546Z,13.10
2023-05-21T02:33:09.669Z,13.10
2023-05-21T02:35:37.254Z,13.00
2023-05-21T02:38:05.002Z,13.00
2023-05-21T02:40:33.563Z,13.10
2023-05-21T02:43:00.914Z,13.10
2023-05-21T02:45:29.015Z,13.10
2023-05-21T02:47:56.323Z,13.10
2023-05-21T02:50:23.802Z,13.00
2023-05-21T02:52:51.040Z,13.10
2023-05-21T02:55:18.266Z,13.10
2023-05-21T02:57:45.612Z,13.10
2023-05-21T03:00:13.598Z,13.10
2023-05-21T03:02:40.983Z,13.10
2023-05-21T03:05:08.452Z,13.10
2023-05-21T03:07:35.763Z,13.10
2023-05-21T03:10:03.173Z,13.20
2023-05-21T03:12:30.483Z,13.20
2023-05-21T03:14:57.861Z,13.20
2023-05-21T03:17:25.162Z,13.20
2023-05-21T03:19:52.485Z,13.30
2023-05-21T03:22:20.530Z,13.30
2023-05-21T03:24:48.841Z,13.30
2023-05-21T03:27:16.467Z,13.40
2023-05-21T03:29:44.000Z,13.40
2023-05-21T03:32:11.742Z,13.40
2023-05-21T03:34:39.016Z,13.40
2023-05-21T03:37:06.763Z,13.50
2023-05-21T03:39:34.303Z,13.40
2023-05-21T03:42:01.736Z,13.50
2023-05-21T03:44:32.673Z,13.60
2023-05-21T03:46:59.987Z,13.60
2023-05-21T03:49:27.501Z,13.60
2023-05-21T03:51:54.704Z,13.60
2023-05-21T03:54:22.251Z,13.70
2023-05-21T03:56:49.652Z,13.70
2023-05-21T03:59:17.071Z,13.80
2023-05-21T04:01:45.560Z,13.80
2023-05-21T04:04:13.183Z,13.90
2023-05-21T04:06:42.482Z,13.90
2023-05-21T04:09:09.908Z,14.10
2023-05-21T04:11:37.277Z,14.20
2023-05-21T04:14:04.578Z,14.30
2023-05-21T04:16:34.931Z,14.40
2023-05-21T04:19:02.473Z,14.50
2023-05-21T04:21:29.870Z,14.70
2023-05-21T04:23:57.744Z,14.90
2023-05-21T04:26:25.477Z,15.10
2023-05-21T04:28:54.259Z,15.80
2023-05-21T04:31:22.821Z,16.50
2023-05-21T04:33:50.949Z,17.60
2023-05-21T04:36:18.266Z,18.70
2023-05-21T04:38:46.009Z,19.40
2023-05-21T04:41:14.446Z,19.80
2023-05-21T04:43:44.204Z,20.40
2023-05-21T04:46:11.842Z,20.60
2023-05-21T04:48:39.243Z,21.10
2023-05-21T04:51:07.104Z,20.80
2023-05-21T04:53:36.109Z,21.30
2023-05-21T04:56:04.074Z,21.30
2023-05-21T04:58:33.142Z,21.40
2023-05-21T05:01:03.296Z,21.50
2023-05-21T05:03:30.841Z,21.00
2023-05-21T05:05:58.219Z,20.50
2023-05-21T05:08:26.082Z,19.50
2023-05-21T05:10:53.415Z,19.20
2023-05-21T05:13:20.928Z,18.80
2023-05-21T05:15:50.233Z,18.80
2023-05-21T05:18:18.300Z,19.00
2023-05-21T05:20:45.481Z,18.80
2023-05-21T05:23:13.190Z,19.00
2023-05-21T05:25:40.676Z,19.10
2023-05-21T05:28:08.062Z,19.40
2023-05-21T05:30:36.477Z,19.10
2023-05-21T05:33:03.862Z,19.40
2023-05-21T05:35:31.235Z,19.20
2023-05-21T05:37:58.709Z,19.60
2023-05-21T05:40:25.897Z,19.90
2023-05-21T05:42:53.618Z,20.40
2023-05-21T05:45:21.215Z,21.10
2023-05-21T05:47:49.016Z,22.40
2023-05-21T05:50:16.418Z,24.30
2023-05-21T05:52:43.902Z,26.40
2023-05-21T05:55:12.276Z,27.60
2023-05-21T05:57:39.601Z,26.80
2023-05-21T06:00:09.505Z,26.50
2023-05-21T06:02:37.852Z,27.30
2023-05-21T06:05:07.177Z,26.20
2023-05-21T06:07:34.640Z,24.60
2023-05-21T06:10:01.918Z,23.10
2023-05-21T06:12:29.150Z,22.70
2023-05-21T06:14:56.500Z,22.40
2023-05-21T06:17:24.048Z,22.40
2023-05-21T06:19:51.848Z,22.70
2023-05-21T06:22:19.074Z,23.20
2023-05-21T06:24:46.330Z,23.10
2023-05-21T06:27:13.755Z,23.10
2023-05-21T06:29:41.108Z,24.80
2023-05-21T06:32:09.211Z,25.70
2023-05-21T06:34:36.736Z,24.90
2023-05-21T06:37:04.269Z,25.60
2023-05-21T06:39:31.555Z,27.40
2023-05-21T06:41:58.810Z,27.70
2023-05-21T06:44:26.249Z,29.20
2023-05-21T06:46:53.512Z,30.80
2023-05-21T06:49:21.134Z,31.00
2023-05-21T06:51:48.436Z,30.50
2023-05-21T06:54:15.788Z,32.00
2023-05-21T06:56:43.186Z,32.00
2023-05-21T06:59:11.042Z,32.40
2023-05-21T07:01:38.612Z,33.70
2023-05-21T07:04:06.225Z,34.90
2023-05-21T07:06:35.025Z,33.10
2023-05-21T07:09:02.498Z,34.10
2023-05-21T07:11:29.877Z,33.70
2023-05-21T07:13:58.991Z,33.50
2023-05-21T07:16:26.394Z,33.50
2023-05-21T07:18:53.892Z,32.80
2023-05-21T07:21:21.367Z,34.40
2023-05-21T07:23:49.545Z,35.60
2023-05-21T07:26:17.058Z,37.10
2023-05-21T07:28:45.363Z,36.60
2023-05-21T07:31:12.869Z,35.60
2023-05-21T07:33:40.304Z,35.70
2023-05-21T07:36:07.984Z,34.50
2023-05-21T07:38:35.536Z,35.90
2023-05-21T07:41:02.853Z,35.00
2023-05-21T07:43:31.891Z,35.50
2023-05-21T07:45:59.218Z,35.20
2023-05-21T07:48:27.263Z,35.70
2023-05-21T07:50:55.177Z,34.50
2023-05-21T07:53:22.608Z,34.50
2023-05-21T07:55:50.088Z,35.60
2023-05-21T07:58:19.049Z,34.10
2023-05-21T08:00:47.743Z,33.70
2023-05-21T08:03:18.630Z,34.80
2023-05-21T08:05:51.325Z,35.00
2023-05-21T08:08:20.229Z,34.40
2023-05-21T08:10:50.889Z,33.40
2023-05-21T08:13:18.520Z,33.40
2023-05-21T08:15:45.923Z,32.20
2023-05-21T08:18:13.429Z,34.10
2023-05-21T08:20:41.619Z,33.90
2023-05-21T08:23:09.107Z,35.10
2023-05-21T08:25:37.151Z,34.80
2023-05-21T08:28:04.600Z,34.60
2023-05-21T08:30:31.944Z,32.90
2023-05-21T08:32:59.339Z,33.20
2023-05-21T08:35:26.903Z,35.90
2023-05-21T08:37:54.333Z,36.30
2023-05-21T08:40:22.211Z,37.40
2023-05-21T08:42:50.283Z,36.30
2023-05-21T08:45:23.235Z,34.10
2023-05-21T08:47:56.897Z,31.80
2023-05-21T08:50:27.350Z,30.80
2023-05-21T08:52:55.655Z,30.60
2023-05-21T08:55:23.866Z,33.00
2023-05-21T08:57:53.159Z,32.70
2023-05-21T09:00:21.452Z,32.80
2023-05-21T09:02:49.129Z,34.40
2023-05-21T09:05:17.049Z,32.60
2023-05-21T09:08:13.262Z,34.40
2023-05-21T09:10:46.759Z,37.00
2023-05-21T09:13:14.899Z,35.10
2023-05-21T09:15:42.641Z,35.70
2023-05-21T09:18:10.118Z,35.80
2023-05-21T09:20:37.750Z,35.60
2023-05-21T09:23:08.311Z,35.30
2023-05-21T09:25:38.318Z,35.90
2023-05-21T09:28:15.769Z,34.30
2023-05-21T09:30:53.733Z,33.90
2023-05-21T09:33:31.644Z,33.30
2023-05-21T09:35:59.567Z,33.80
2023-05-21T09:38:27.450Z,33.90
2023-05-21T09:40:58.019Z,34.60
2023-05-21T09:43:25.658Z,32.70
2023-05-21T09:45:56.902Z,33.50
2023-05-21T09:48:42.340Z,32.00
2023-05-21T09:51:14.853Z,32.50
2023-05-21T09:53:58.241Z,32.60
2023-05-21T09:56:32.322Z,32.70
2023-05-21T09:59:04.464Z,30.40
2023-05-21T10:01:36.307Z,30.20
2023-05-21T10:04:08.183Z,31.10
2023-05-21T10:06:42.234Z,31.90
2023-05-21T10:09:16.001Z,31.70
2023-05-21T10:11:45.158Z,31.70
2023-05-21T10:14:20.079Z,30.50
2023-05-21T10:16:48.165Z,29.70
2023-05-21T10:19:16.513Z,30.80
2023-05-21T10:21:45.956Z,30.00
2023-05-21T10:24:14.125Z,29.60
2023-05-21T10:26:41.839Z,29.30
2023-05-21T10:29:09.822Z,29.70
2023-05-21T10:31:39.645Z,29.80
2023-05-21T10:34:07.724Z,30.00
2023-05-21T10:36:37.599Z,28.70
2023-05-21T10:39:07.760Z,28.60
2023-05-21T10:41:47.174Z,27.50
2023-05-21T10:45:06.228Z,26.80
2023-05-21T10:47:39.084Z,26.70
2023-05-21T10:50:15.339Z,26.90
2023-05-21T10:53:00.851Z,27.00
2023-05-21T10:55:43.722Z,27.10
2023-05-21T10:58:36.010Z,26.90
2023-05-21T11:01:04.095Z,26.80
2023-05-21T11:03:35.041Z,26.80
2023-05-21T11:06:08.838Z,26.50
2023-05-21T11:08:37.450Z,26.50
2023-05-21T11:11:05.022Z,26.40
2023-05-21T11:13:49.807Z,26.40
2023-05-21T11:16:18.814Z,26.60
2023-05-21T11:18:46.272Z,26.20
2023-05-21T11:21:19.016Z,26.60
2023-05-21T11:23:52.192Z,26.50
2023-05-21T11:26:22.699Z,27.00
2023-05-21T11:29:31.762Z,27.40
2023-05-21T11:32:03.218Z,27.70
2023-05-21T11:34:42.064Z,28.00
2023-05-21T11:37:18.829Z,28.50
2023-05-21T11:39:47.373Z,28.50
2023-05-21T11:42:30.621Z,28.50
2023-05-21T11:44:59.635Z,29.40
2023-05-21T11:47:29.178Z,28.20
2023-05-21T11:49:58.780Z,28.20
2023-05-21T11:52:27.004Z,28.40
2023-05-21T11:54:58.282Z,28.60
2023-05-21T11:57:32.149Z,28.80
2023-05-21T12:00:01.581Z,28.30
2023-05-21T12:02:32.660Z,28.40
2023-05-21T12:05:04.084Z,28.40
2023-05-21T12:07:31.557Z,30.40
2023-05-21T12:09:59.138Z,30.90
2023-05-21T12:12:35.319Z,29.50
2023-05-21T12:15:07.216Z,29.50
2023-05-21T12:17:34.502Z,28.60
2023-05-21T12:20:02.452Z,28.00
2023-05-21T12:22:30.054Z,28.70
2023-05-21T12:24:58.551Z,28.90
2023-05-21T12:27:26.038Z,28.60
2023-05-21T12:29:53.738Z,28.80
2023-05-21T12:32:24.987Z,28.60
2023-05-21T12:34:55.506Z,28.40
2023-05-21T12:37:25.967Z,28.40
2023-05-21T12:39:55.199Z,28.10
2023-05-21T12:42:35.482Z,28.20
2023-05-21T12:45:10.696Z,27.60
2023-05-21T12:47:38.435Z,27.20
2023-05-21T12:50:12.030Z,27.30
2023-05-21T12:52:41.134Z,27.80
2023-05-21T12:55:10.608Z,27.70
2023-05-21T12:57:41.871Z,27.60
2023-05-21T13:00:12.867Z,27.60
2023-05-21T13:02:42.040Z,27.70
2023-05-21T13:05:11.555Z,27.60
2023-05-21T13:07:40.050Z,27.70
2023-05-21T13:10:07.914Z,28.00
2023-05-21T13:12:35.977Z,27.70
2023-05-21T13:15:04.973Z,27.60
2023-05-21T13:17:32.728Z,27.90
2023-05-21T13:20:26.555Z,27.70
2023-05-21T13:22:54.295Z,27.40
2023-05-21T13:25:25.176Z,27.30
2023-05-21T13:27:53.335Z,26.90
2023-05-21T13:30:22.949Z,27.30
2023-05-21T13:32:50.597Z,27.20
2023-05-21T13:35:18.519Z,26.90
2023-05-21T13:37:46.225Z,27.10
2023-05-21T13:40:15.693Z,26.90
2023-05-21T13:42:45.919Z,26.60
2023-05-21T13:45:15.173Z,26.90
2023-05-21T13:47:43.673Z,27.20
2023-05-21T13:50:12.090Z,27.50
2023-05-21T13:52:39.639Z,27.50
2023-05-21T13:55:07.336Z,27.60
2023-05-21T13:57:34.854Z,27.60
2023-05-21T14:00:02.701Z,27.50
2023-05-21T14:02:30.202Z,27.50
2023-05-21T14:04:57.704Z,27.40
2023-05-21T14:07:24.997Z,27.40
2023-05-21T14:09:52.600Z,27.30
2023-05-21T14:12:19.952Z,27.30
2023-05-21T14:14:49.971Z,26.50
2023-05-21T14:17:17.348Z,26.50
2023-05-21T14:19:44.791Z,26.50
2023-05-21T14:22:12.246Z,26.60
2023-05-21T14:24:39.662Z,26.80
2023-05-21T14:27:07.047Z,26.50
2023-05-21T14:29:34.333Z,26.80
2023-05-21T14:32:01.757Z,26.70
2023-05-21T14:34:29.076Z,26.60
2023-05-21T14:36:56.366Z,26.60
2023-05-21T14:39:23.650Z,26.50
2023-05-21T14:41:51.131Z,26.60
2023-05-21T14:44:18.482Z,26.60
2023-05-21T14:46:45.752Z,26.60
2023-05-21T14:49:13.525Z,26.40
2023-05-21T14:51:40.982Z,26.30
2023-05-21T14:54:08.222Z,26.20
2023-05-21T14:56:35.839Z,26.10
2023-05-21T14:59:03.222Z,26.10
2023-05-21T15:01:30.586Z,26.20
2023-05-21T15:03:58.848Z,26.40
2023-05-21T15:06:26.762Z,26.10
2023-05-21T15:08:54.199Z,26.20
2023-05-21T15:11:21.928Z,26.30
2023-05-21T15:13:49.315Z,26.20
2023-05-21T15:16:18.883Z,26.10
2023-05-21T15:18:47.244Z,26.00
2023-05-21T15:21:14.869Z,26.00
2023-05-21T15:23:42.186Z,25.90
2023-05-21T15:26:09.427Z,26.00
2023-05-21T15:28:36.802Z,25.90
2023-05-21T15:31:04.396Z,26.00
2023-05-21T15:33:31.779Z,26.00
2023-05-21T15:35:59.470Z,25.90
2023-05-21T15:38:26.932Z,25.90
2023-05-21T15:40:54.683Z,25.90
2023-05-21T15:43:24.938Z,25.90
2023-05-21T15:45:52.260Z,25.90
2023-05-21T15:48:22.765Z,25.80
2023-05-21T15:50:50.314Z,25.70
2023-05-21T15:53:17.832Z,25.70
2023-05-21T15:55:45.198Z,25.70
2023-05-21T15:58:12.657Z,25.60
2023-05-21T16:00:40.082Z,25.60
2023-05-21T16:03:08.797Z,25.50
2023-05-21T16:05:36.588Z,25.70
2023-05-21T16:08:04.240Z,25.50
2023-05-21T16:10:31.704Z,25.50
2023-05-21T16:12:59.415Z,25.40
2023-05-21T16:15:28.834Z,25.30
2023-05-21T16:17:56.373Z,25.30
2023-05-21T16:20:23.929Z,25.20
2023-05-21T16:22:51.416Z,25.20
2023-05-21T16:25:19.010Z,25.10
2023-05-21T16:27:46.495Z,25.10
2023-05-21T16:30:14.354Z,25.10
2023-05-21T16:32:42.114Z,25.10
2023-05-21T16:35:09.572Z,25.00
2023-05-21T16:37:36.937Z,25.00
2023-05-21T16:40:04.942Z,24.80
2023-05-21T16:42:32.355Z,24.80
2023-05-21T16:44:59.640Z,24.80
2023-05-21T16:47:27.061Z,24.80
2023-05-21T16:49:56.013Z,24.60
2023-05-21T16:52:24.199Z,24.60
2023-05-21T16:54:51.838Z,24.60
2023-05-21T16:57:19.155Z,24.50
2023-05-21T16:59:47.407Z,24.40
2023-05-21T17:02:15.013Z,24.30
2023-05-21T17:04:42.407Z,24.20
2023-05-21T17:07:09.853Z,24.10
2023-05-21T17:09:37.097Z,24.00
2023-05-21T17:12:04.730Z,23.90
2023-05-21T17:14:34.340Z,23.80
2023-05-21T17:17:02.379Z,23.70
2023-05-21T17:19:29.903Z,23.60
2023-05-21T17:21:57.411Z,23.50
2023-05-21T17:24:24.915Z,23.40
2023-05-21T17:26:53.387Z,23.30
2023-05-21T17:29:23.204Z,23.20
2023-05-21T17:31:50.863Z,23.10
2023-05-21T17:34:18.584Z,23.00
2023-05-21T17:36:45.906Z,23.00
2023-05-21T17:39:13.546Z,22.90
2023-05-21T17:41:40.953Z,22.80
2023-05-21T17:44:08.336Z,22.70
2023-05-21T17:46:35.806Z,22.70
2023-05-21T17:49:03.227Z,22.70
2023-05-21T17:51:31.724Z,22.70
2023-05-21T17:53:59.186Z,22.60
2023-05-21T17:56:27.153Z,22.60
2023-05-21T17:58:54.533Z,22.50
2023-05-21T18:01:22.457Z,22.50
2023-05-21T18:03:49.982Z,22.50
2023-05-21T18:06:17.445Z,22.40
2023-05-21T18:08:45.691Z,22.30
2023-05-21T18:11:13.095Z,22.30
2023-05-21T18:13:40.436Z,22.20
2023-05-21T18:16:07.798Z,22.20
2023-05-21T18:18:35.119Z,22.20
2023-05-21T18:21:02.426Z,22.20
2023-05-21T18:23:31.527Z,22.10
2023-05-21T18:25:58.870Z,22.00
2023-05-21T18:28:27.668Z,22.00
2023-05-21T18:30:55.770Z,21.90
2023-05-21T18:33:23.178Z,21.90
2023-05-21T18:35:50.467Z,21.90
2023-05-21T18:38:17.797Z,21.80
2023-05-21T18:40:45.153Z,21.80
2023-05-21T18:43:14.108Z,21.80
2023-05-21T18:45:41.603Z,21.70
2023-05-21T18:48:09.067Z,21.60
2023-05-21T18:50:37.329Z,21.60
2023-05-21T18:53:05.977Z,21.50
2023-05-21T18:55:34.665Z,21.50
2023-05-21T18:58:02.124Z,21.40
2023-05-21T19:00:29.719Z,21.30
2023-05-21T19:02:57.693Z,21.30
2023-05-21T19:05:25.087Z,21.20
2023-05-21T19:07:52.452Z,21.10
2023-05-21T19:10:19.868Z,21.10
2023-05-21T19:12:47.275Z,20.90
2023-05-21T19:15:14.697Z,20.90
2023-05-21T19:17:42.059Z,20.80
2023-05-21T19:20:10.597Z,20.70
2023-05-21T19:22:37.919Z,20.50
2023-05-21T19:25:05.735Z,20.40
2023-05-21T19:27:33.093Z,20.30
2023-05-21T19:30:00.648Z,20.20
2023-05-21T19:32:27.991Z,20.20
2023-05-21T19:34:57.608Z,20.20
2023-05-21T19:37:24.866Z,20.20
2023-05-21T19:39:52.274Z,20.20
2023-05-21T19:42:21.690Z,20.20
2023-05-21T19:44:49.131Z,20.10
2023-05-21T19:47:16.631Z,20.10
2023-05-21T19:49:43.788Z,20.00
2023-05-21T19:52:12.255Z,19.80
2023-05-21T19:54:39.629Z,19.50
2023-05-21T19:57:07.033Z,19.50
2023-05-21T19:59:34.816Z,19.60
2023-05-21T20:02:02.241Z,19.60
2023-05-21T20:04:29.482Z,19.60
2023-05-21T20:06:56.952Z,19.50
2023-05-21T20:09:24.350Z,19.50
2023-05-21T20:11:51.932Z,19.40
2023-05-21T20:14:19.147Z,19.40
2023-05-21T20:16:47.482Z,19.50
2023-05-21T20:19:15.779Z,19.40
2023-05-21T20:21:43.157Z,19.40
2023-05-21T20:24:11.532Z,19.40
2023-05-21T20:26:40.055Z,19.40
2023-05-21T20:29:08.263Z,19.50
2023-05-21T20:31:36.098Z,19.50
2023-05-21T20:34:07.951Z,19.50
2023-05-21T20:36:36.193Z,19.50
2023-05-21T20:39:03.642Z,19.50
2023-05-21T20:41:37.899Z,19.50
2023-05-21T20:44:06.598Z,19.40
2023-05-21T20:46:38.316Z,19.40
2023-05-21T20:49:06.401Z,19.40
2023-05-21T20:51:33.979Z,19.30
2023-05-21T20:54:01.255Z,19.20
2023-05-21T20:56:41.419Z,19.10
2023-05-21T20:59:11.359Z,19.10
2023-05-21T21:01:41.329Z,19.10
2023-05-21T21:04:08.975Z,19.00
2023-05-21T21:06:38.614Z,19.00
2023-05-21T21:09:06.145Z,18.90
2023-05-21T21:11:33.595Z,18.90
2023-05-21T21:14:02.770Z,18.90
2023-05-21T21:16:30.128Z,18.90
2023-05-21T21:18:57.486Z,18.90
2023-05-21T21:21:25.578Z,18.90
2023-05-21T21:23:52.870Z,18.80
2023-05-21T21:26:20.309Z,18.80
2023-05-21T21:28:47.887Z,18.80
2023-05-21T21:31:17.656Z,18.90
2023-05-21T21:33:45.055Z,18.90
2023-05-21T21:36:12.667Z,18.80
2023-05-21T21:38:40.022Z,18.80
2023-05-21T21:41:07.897Z,18.80
2023-05-21T21:43:35.145Z,18.80
2023-05-21T21:46:02.426Z,18.70
2023-05-21T21:48:29.798Z,18.70
2023-05-21T21:50:57.032Z,18.60
2023-05-21T21:53:24.312Z,18.50
2023-05-21T21:55:51.707Z,18.40
2023-05-21T21:58:19.325Z,18.30
2023-05-21T22:00:46.785Z,18.20
2023-05-21T22:03:14.838Z,18.20
2023-05-21T22:05:42.828Z,18.20
2023-05-21T22:08:10.255Z,18.00
2023-05-21T22:10:38.564Z,18.00
2023-05-21T22:13:06.140Z,18.00
2023-05-21T22:15:33.653Z,17.90
2023-05-21T22:18:02.654Z,17.80
2023-05-21T22:20:30.310Z,17.70
2023-05-21T22:22:58.161Z,17.60
2023-05-21T22:25:25.809Z,17.50
2023-05-21T22:27:54.195Z,17.50
2023-05-21T22:30:21.873Z,17.50
2023-05-21T22:32:49.269Z,17.40
2023-05-21T22:35:16.951Z,17.40
2023-05-21T22:37:44.693Z,17.30
2023-05-21T22:40:12.311Z,17.20
2023-05-21T22:42:39.702Z,17.10
2023-05-21T22:45:08.628Z,17.10
2023-05-21T22:47:39.854Z,17.10
2023-05-21T22:50:08.432Z,17.00
2023-05-21T22:52:37.059Z,16.90
2023-05-21T22:55:06.209Z,16.90
2023-05-21T22:57:33.626Z,16.80
2023-05-21T23:00:00.880Z,16.70
2023-05-21T23:02:29.068Z,16.70
2023-05-21T23:04:58.297Z,16.60
2023-05-21T23:07:25.934Z,16.50
2023-05-21T23:09:53.220Z,16.40
2023-05-21T23:12:20.766Z,16.30
2023-05-21T23:14:48.043Z,16.20
2023-05-21T23:17:15.342Z,16.30
2023-05-21T23:19:42.985Z,16.30
2023-05-21T23:22:10.544Z,16.30
2023-05-21T23:24:39.087Z,16.30
2023-05-21T23:27:06.396Z,16.30
2023-05-21T23:29:33.653Z,16.40
2023-05-21T23:32:01.287Z,16.40
2023-05-21T23:34:28.739Z,16.40
2023-05-21T23:36:58.722Z,16.50
2023-05-21T23:39:28.932Z,16.40
2023-05-21T23:41:56.557Z,16.40
2023-05-21T23:44:23.909Z,16.40
2023-05-21T23:46:51.429Z,16.40
2023-05-21T23:49:18.811Z,16.50
2023-05-21T23:51:46.932Z,16.50
2023-05-21T23:54:15.452Z,16.50
2023-05-21T23:56:43.857Z,16.50
2023-05-21T23:59:11.252Z,16.60
